sensor_id;sensor_type;location;lat;lon;timestamp;pressure;altitude;pressure_sealevel;temperature;humidity
2401;BME280;1211;43.200;27.914;2023-04-15T00:01:13;100566.59;;;17.99;94.76
2401;BME280;1211;43.200;27.914;2023-04-15T00:03:44;100561.25;;;17.84;95.10
2401;BME280;1211;43.200;27.914;2023-04-15T00:06:11;100560.59;;;17.97;94.91
2401;BME280;1211;43.200;27.914;2023-04-15T00:08:38;100556.63;;;17.98;95.03
2401;BME280;1211;43.200;27.914;2023-04-15T00:11:05;100558.31;;;18.06;94.75
2401;BME280;1211;43.200;27.914;2023-04-15T00:13:31;100548.19;;;18.28;93.46
2401;BME280;1211;43.200;27.914;2023-04-15T00:15:58;100551.75;;;18.69;91.48
2401;BME280;1211;43.200;27.914;2023-04-15T00:18:25;100558.47;;;18.21;93.63
2401;BME280;1211;43.200;27.914;2023-04-15T00:20:55;100561.22;;;18.17;96.00
2401;BME280;1211;43.200;27.914;2023-04-15T00:23:21;100552.28;;;18.41;95.45
2401;BME280;1211;43.200;27.914;2023-04-15T00:25:48;100557.41;;;18.76;93.54
2401;BME280;1211;43.200;27.914;2023-04-15T00:28:15;100560.06;;;18.62;93.79
2401;BME280;1211;43.200;27.914;2023-04-15T00:30:42;100559.56;;;18.53;94.03
2401;BME280;1211;43.200;27.914;2023-04-15T00:33:08;100567.63;;;18.21;96.54
2401;BME280;1211;43.200;27.914;2023-04-15T00:35:35;100574.00;;;18.22;97.55
2401;BME280;1211;43.200;27.914;2023-04-15T00:38:04;100573.19;;;18.58;96.18
2401;BME280;1211;43.200;27.914;2023-04-15T00:40:31;100573.25;;;18.25;96.85
2401;BME280;1211;43.200;27.914;2023-04-15T00:42:58;100582.91;;;18.38;96.90
2401;BME280;1211;43.200;27.914;2023-04-15T00:45:25;100581.19;;;18.60;95.81
2401;BME280;1211;43.200;27.914;2023-04-15T00:47:52;100587.88;;;18.55;95.95
2401;BME280;1211;43.200;27.914;2023-04-15T00:50:19;100589.19;;;18.28;97.11
2401;BME280;1211;43.200;27.914;2023-04-15T00:52:45;100579.03;;;18.46;96.15
2401;BME280;1211;43.200;27.914;2023-04-15T00:55:13;100585.41;;;18.46;96.24
2401;BME280;1211;43.200;27.914;2023-04-15T00:57:40;100572.81;;;18.60;96.10
2401;BME280;1211;43.200;27.914;2023-04-15T01:00:07;100587.84;;;18.51;95.92
2401;BME280;1211;43.200;27.914;2023-04-15T01:02:35;100584.38;;;18.62;95.56
2401;BME280;1211;43.200;27.914;2023-04-15T01:05:02;100588.75;;;18.63;95.86
2401;BME280;1211;43.200;27.914;2023-04-15T01:07:29;100585.53;;;18.61;95.40
2401;BME280;1211;43.200;27.914;2023-04-15T01:09:56;100581.56;;;18.58;95.85
2401;BME280;1211;43.200;27.914;2023-04-15T01:12:25;100584.75;;;18.20;97.70
2401;BME280;1211;43.200;27.914;2023-04-15T01:14:52;100583.41;;;18.47;97.39
2401;BME280;1211;43.200;27.914;2023-04-15T01:17:18;100582.56;;;18.43;98.39
2401;BME280;1211;43.200;27.914;2023-04-15T01:19:45;100581.25;;;18.30;99.88
2401;BME280;1211;43.200;27.914;2023-04-15T01:22:12;100569.44;;;18.43;99.43
2401;BME280;1211;43.200;27.914;2023-04-15T01:24:39;100576.44;;;18.27;100.00
2401;BME280;1211;43.200;27.914;2023-04-15T01:27:07;100577.97;;;18.58;98.63
2401;BME280;1211;43.200;27.914;2023-04-15T01:29:36;100578.47;;;18.30;99.87
2401;BME280;1211;43.200;27.914;2023-04-15T01:32:03;100572.41;;;18.21;100.00
2401;BME280;1211;43.200;27.914;2023-04-15T01:34:30;100584.13;;;18.00;100.00
2401;BME280;1211;43.200;27.914;2023-04-15T01:36:57;100566.44;;;18.22;100.00
2401;BME280;1211;43.200;27.914;2023-04-15T01:39:24;100571.50;;;18.09;100.00
2401;BME280;1211;43.200;27.914;2023-04-15T01:41:50;100576.88;;;18.29;99.83
2401;BME280;1211;43.200;27.914;2023-04-15T01:44:18;100571.66;;;18.24;100.00
2401;BME280;1211;43.200;27.914;2023-04-15T01:46:45;100573.50;;;18.53;99.32
2401;BME280;1211;43.200;27.914;2023-04-15T01:49:12;100562.31;;;18.49;97.70
2401;BME280;1211;43.200;27.914;2023-04-15T01:51:39;100563.81;;;18.36;98.21
2401;BME280;1211;43.200;27.914;2023-04-15T01:54:05;100565.38;;;18.34;98.95
2401;BME280;1211;43.200;27.914;2023-04-15T01:56:32;100567.09;;;18.49;97.45
2401;BME280;1211;43.200;27.914;2023-04-15T01:58:59;100564.19;;;18.35;97.49
2401;BME280;1211;43.200;27.914;2023-04-15T02:01:27;100568.06;;;18.67;96.11
2401;BME280;1211;43.200;27.914;2023-04-15T02:03:53;100574.09;;;18.73;95.12
2401;BME280;1211;43.200;27.914;2023-04-15T02:06:20;100570.72;;;18.53;96.78
2401;BME280;1211;43.200;27.914;2023-04-15T02:08:47;100571.81;;;18.89;94.89
2401;BME280;1211;43.200;27.914;2023-04-15T02:11:14;100574.41;;;19.15;93.62
2401;BME280;1211;43.200;27.914;2023-04-15T02:13:41;100571.63;;;19.19;92.58
2401;BME280;1211;43.200;27.914;2023-04-15T02:16:14;100570.78;;;19.11;93.65
2401;BME280;1211;43.200;27.914;2023-04-15T02:18:42;100575.31;;;18.75;95.09
2401;BME280;1211;43.200;27.914;2023-04-15T02:21:08;100570.91;;;18.74;96.21
2401;BME280;1211;43.200;27.914;2023-04-15T02:23:35;100567.81;;;18.86;95.19
2401;BME280;1211;43.200;27.914;2023-04-15T02:26:02;100585.03;;;18.07;100.00
2401;BME280;1211;43.200;27.914;2023-04-15T02:28:28;100574.28;;;18.50;99.04
2401;BME280;1211;43.200;27.914;2023-04-15T02:30:55;100577.03;;;18.90;96.89
2401;BME280;1211;43.200;27.914;2023-04-15T02:33:23;100583.81;;;18.49;98.36
2401;BME280;1211;43.200;27.914;2023-04-15T02:35:52;100586.31;;;18.17;100.00
2401;BME280;1211;43.200;27.914;2023-04-15T02:38:18;100586.38;;;18.24;100.00
2401;BME280;1211;43.200;27.914;2023-04-15T02:40:45;100576.06;;;18.28;100.00
2401;BME280;1211;43.200;27.914;2023-04-15T02:43:13;100578.47;;;18.70;100.00
2401;BME280;1211;43.200;27.914;2023-04-15T02:45:41;100582.50;;;18.76;100.00
2401;BME280;1211;43.200;27.914;2023-04-15T02:48:08;100578.03;;;18.65;100.00
2401;BME280;1211;43.200;27.914;2023-04-15T02:50:34;100574.13;;;18.76;100.00
2401;BME280;1211;43.200;27.914;2023-04-15T02:53:04;100574.44;;;18.64;100.00
2401;BME280;1211;43.200;27.914;2023-04-15T02:55:31;100573.06;;;18.47;100.00
2401;BME280;1211;43.200;27.914;2023-04-15T02:57:58;100579.28;;;18.30;100.00
2401;BME280;1211;43.200;27.914;2023-04-15T03:00:25;100584.59;;;18.42;100.00
2401;BME280;1211;43.200;27.914;2023-04-15T03:02:56;100586.53;;;18.01;100.00
2401;BME280;1211;43.200;27.914;2023-04-15T03:05:23;100586.19;;;18.06;100.00
2401;BME280;1211;43.200;27.914;2023-04-15T03:07:50;100586.53;;;17.68;100.00
2401;BME280;1211;43.200;27.914;2023-04-15T03:10:19;100582.59;;;18.02;100.00
2401;BME280;1211;43.200;27.914;2023-04-15T03:12:45;100581.59;;;17.88;100.00
2401;BME280;1211;43.200;27.914;2023-04-15T03:15:12;100580.19;;;17.67;100.00
2401;BME280;1211;43.200;27.914;2023-04-15T03:17:39;100581.47;;;17.77;100.00
2401;BME280;1211;43.200;27.914;2023-04-15T03:20:06;100583.75;;;17.68;100.00
2401;BME280;1211;43.200;27.914;2023-04-15T03:22:33;100573.91;;;17.48;100.00
2401;BME280;1211;43.200;27.914;2023-04-15T03:25:00;100590.88;;;17.62;100.00
2401;BME280;1211;43.200;27.914;2023-04-15T03:27:28;100575.78;;;17.66;100.00
2401;BME280;1211;43.200;27.914;2023-04-15T03:29:55;100577.41;;;17.67;100.00
2401;BME280;1211;43.200;27.914;2023-04-15T03:32:21;100572.75;;;17.49;100.00
2401;BME280;1211;43.200;27.914;2023-04-15T03:34:48;100574.06;;;17.28;100.00
2401;BME280;1211;43.200;27.914;2023-04-15T03:37:15;100577.59;;;17.25;100.00
2401;BME280;1211;43.200;27.914;2023-04-15T03:39:41;100575.00;;;17.10;100.00
2401;BME280;1211;43.200;27.914;2023-04-15T03:42:08;100588.53;;;16.85;100.00
2401;BME280;1211;43.200;27.914;2023-04-15T03:44:36;100587.97;;;16.76;100.00
2401;BME280;1211;43.200;27.914;2023-04-15T03:47:03;100589.81;;;16.91;100.00
2401;BME280;1211;43.200;27.914;2023-04-15T03:49:29;100574.38;;;16.71;100.00
2401;BME280;1211;43.200;27.914;2023-04-15T03:51:56;100572.69;;;16.89;100.00
2401;BME280;1211;43.200;27.914;2023-04-15T03:54:23;100579.53;;;16.95;100.00
2401;BME280;1211;43.200;27.914;2023-04-15T03:56:50;100588.53;;;17.11;100.00
2401;BME280;1211;43.200;27.914;2023-04-15T03:59:17;100585.13;;;17.21;100.00
2401;BME280;1211;43.200;27.914;2023-04-15T04:01:45;100590.44;;;17.34;100.00
2401;BME280;1211;43.200;27.914;2023-04-15T04:04:11;100596.16;;;17.44;100.00
2401;BME280;1211;43.200;27.914;2023-04-15T04:06:38;100596.63;;;17.50;100.00
2401;BME280;1211;43.200;27.914;2023-04-15T04:09:05;100600.44;;;17.64;100.00
2401;BME280;1211;43.200;27.914;2023-04-15T04:11:31;100594.97;;;17.75;100.00
2401;BME280;1211;43.200;27.914;2023-04-15T04:13:58;100592.09;;;17.38;100.00
2401;BME280;1211;43.200;27.914;2023-04-15T04:16:25;100587.16;;;17.28;100.00
2401;BME280;1211;43.200;27.914;2023-04-15T04:18:53;100592.38;;;17.29;100.00
2401;BME280;1211;43.200;27.914;2023-04-15T04:21:20;100595.84;;;17.23;100.00
2401;BME280;1211;43.200;27.914;2023-04-15T04:23:46;100608.59;;;17.24;100.00
2401;BME280;1211;43.200;27.914;2023-04-15T04:26:13;100608.66;;;17.27;100.00
2401;BME280;1211;43.200;27.914;2023-04-15T04:28:40;100608.22;;;16.99;100.00
2401;BME280;1211;43.200;27.914;2023-04-15T04:31:07;100615.19;;;17.12;100.00
2401;BME280;1211;43.200;27.914;2023-04-15T04:33:33;100611.53;;;17.35;100.00
2401;BME280;1211;43.200;27.914;2023-04-15T04:36:02;100616.53;;;17.52;100.00
2401;BME280;1211;43.200;27.914;2023-04-15T04:38:28;100610.19;;;17.81;100.00
2401;BME280;1211;43.200;27.914;2023-04-15T04:40:55;100612.81;;;18.00;100.00
2401;BME280;1211;43.200;27.914;2023-04-15T04:43:22;100604.22;;;18.16;100.00
2401;BME280;1211;43.200;27.914;2023-04-15T04:45:48;100609.28;;;18.44;100.00
2401;BME280;1211;43.200;27.914;2023-04-15T04:48:15;100604.50;;;18.44;100.00
2401;BME280;1211;43.200;27.914;2023-04-15T04:50:43;100617.25;;;18.42;100.00
2401;BME280;1211;43.200;27.914;2023-04-15T04:53:12;100623.78;;;18.57;100.00
2401;BME280;1211;43.200;27.914;2023-04-15T04:55:39;100617.13;;;18.31;100.00
2401;BME280;1211;43.200;27.914;2023-04-15T04:58:05;100614.47;;;18.08;100.00
2401;BME280;1211;43.200;27.914;2023-04-15T05:00:32;100615.63;;;18.04;100.00
2401;BME280;1211;43.200;27.914;2023-04-15T05:02:59;100620.47;;;18.07;100.00
2401;BME280;1211;43.200;27.914;2023-04-15T05:05:25;100613.84;;;17.85;100.00
2401;BME280;1211;43.200;27.914;2023-04-15T05:07:52;100619.31;;;18.11;100.00
2401;BME280;1211;43.200;27.914;2023-04-15T05:10:20;100608.88;;;18.05;100.00
2401;BME280;1211;43.200;27.914;2023-04-15T05:12:47;100612.94;;;18.11;100.00
2401;BME280;1211;43.200;27.914;2023-04-15T05:15:14;100618.53;;;18.15;100.00
2401;BME280;1211;43.200;27.914;2023-04-15T05:17:41;100610.59;;;18.17;100.00
2401;BME280;1211;43.200;27.914;2023-04-15T05:20:08;100611.69;;;18.08;100.00
2401;BME280;1211;43.200;27.914;2023-04-15T05:22:34;100611.38;;;18.14;100.00
2401;BME280;1211;43.200;27.914;2023-04-15T05:25:02;100616.19;;;18.20;100.00
2401;BME280;1211;43.200;27.914;2023-04-15T05:27:30;100613.38;;;18.17;100.00
2401;BME280;1211;43.200;27.914;2023-04-15T05:29:57;100606.88;;;18.05;100.00
2401;BME280;1211;43.200;27.914;2023-04-15T05:32:26;100613.53;;;17.94;100.00
2401;BME280;1211;43.200;27.914;2023-04-15T05:34:52;100609.50;;;17.91;100.00
2401;BME280;1211;43.200;27.914;2023-04-15T05:37:19;100608.84;;;18.01;100.00
2401;BME280;1211;43.200;27.914;2023-04-15T05:39:46;100610.19;;;17.81;100.00
2401;BME280;1211;43.200;27.914;2023-04-15T05:42:13;100604.59;;;17.81;100.00
2401;BME280;1211;43.200;27.914;2023-04-15T05:44:41;100611.28;;;18.06;100.00
2401;BME280;1211;43.200;27.914;2023-04-15T05:47:08;100607.94;;;17.94;100.00
2401;BME280;1211;43.200;27.914;2023-04-15T05:49:35;100624.91;;;18.15;100.00
2401;BME280;1211;43.200;27.914;2023-04-15T05:52:01;100665.28;;;17.12;100.00
2401;BME280;1211;43.200;27.914;2023-04-15T05:54:28;100672.03;;;17.64;100.00
2401;BME280;1211;43.200;27.914;2023-04-15T05:56:55;100672.34;;;17.85;100.00
2401;BME280;1211;43.200;27.914;2023-04-15T05:59:22;100686.03;;;18.64;100.00
2401;BME280;1211;43.200;27.914;2023-04-15T06:01:50;100682.59;;;17.78;100.00
2401;BME280;1211;43.200;27.914;2023-04-15T06:04:17;100679.91;;;18.18;100.00
2401;BME280;1211;43.200;27.914;2023-04-15T06:06:44;100688.63;;;18.13;100.00
2401;BME280;1211;43.200;27.914;2023-04-15T06:09:11;100696.69;;;18.22;100.00
2401;BME280;1211;43.200;27.914;2023-04-15T06:11:37;100699.19;;;18.30;100.00
2401;BME280;1211;43.200;27.914;2023-04-15T06:14:05;100707.69;;;18.11;100.00
2401;BME280;1211;43.200;27.914;2023-04-15T06:16:32;100712.13;;;17.86;100.00
2401;BME280;1211;43.200;27.914;2023-04-15T06:19:02;100716.13;;;17.85;100.00
2401;BME280;1211;43.200;27.914;2023-04-15T06:21:28;100715.88;;;17.67;100.00
2401;BME280;1211;43.200;27.914;2023-04-15T06:23:55;100716.13;;;17.85;100.00
2401;BME280;1211;43.200;27.914;2023-04-15T06:26:22;100709.25;;;18.08;100.00
2401;BME280;1211;43.200;27.914;2023-04-15T06:28:48;100707.25;;;18.39;100.00
2401;BME280;1211;43.200;27.914;2023-04-15T06:31:15;100724.47;;;18.15;100.00
2401;BME280;1211;43.200;27.914;2023-04-15T06:33:42;100717.09;;;17.99;100.00
2401;BME280;1211;43.200;27.914;2023-04-15T06:36:10;100719.56;;;18.38;100.00
2401;BME280;1211;43.200;27.914;2023-04-15T06:38:36;100709.19;;;18.68;100.00
2401;BME280;1211;43.200;27.914;2023-04-15T06:41:03;100713.31;;;18.81;100.00
2401;BME280;1211;43.200;27.914;2023-04-15T06:43:30;100706.50;;;18.79;100.00
2401;BME280;1211;43.200;27.914;2023-04-15T06:45:57;100701.50;;;18.99;100.00
2401;BME280;1211;43.200;27.914;2023-04-15T06:48:24;100693.31;;;19.20;100.00
2401;BME280;1211;43.200;27.914;2023-04-15T06:50:50;100692.88;;;19.18;100.00
2401;BME280;1211;43.200;27.914;2023-04-15T06:53:19;100705.41;;;19.38;100.00
2401;BME280;1211;43.200;27.914;2023-04-15T06:55:45;100704.91;;;19.22;100.00
2401;BME280;1211;43.200;27.914;2023-04-15T06:58:12;100695.16;;;19.53;100.00
2401;BME280;1211;43.200;27.914;2023-04-15T07:00:38;100690.13;;;19.76;100.00
2401;BME280;1211;43.200;27.914;2023-04-15T07:03:05;100696.69;;;20.12;100.00
2401;BME280;1211;43.200;27.914;2023-04-15T07:05:35;100702.31;;;20.15;100.00
2401;BME280;1211;43.200;27.914;2023-04-15T07:08:02;100707.94;;;20.30;100.00
2401;BME280;1211;43.200;27.914;2023-04-15T07:10:30;100716.78;;;20.35;100.00
2401;BME280;1211;43.200;27.914;2023-04-15T07:12:57;100728.44;;;20.51;100.00
2401;BME280;1211;43.200;27.914;2023-04-15T07:15:24;100738.59;;;19.98;100.00
2401;BME280;1211;43.200;27.914;2023-04-15T07:17:50;100739.06;;;20.14;100.00
2401;BME280;1211;43.200;27.914;2023-04-15T07:20:17;100734.66;;;20.13;100.00
2401;BME280;1211;43.200;27.914;2023-04-15T07:22:44;100734.78;;;20.41;100.00
2401;BME280;1211;43.200;27.914;2023-04-15T07:25:10;100733.66;;;20.64;100.00
2401;BME280;1211;43.200;27.914;2023-04-15T07:27:38;100740.34;;;20.34;100.00
2401;BME280;1211;43.200;27.914;2023-04-15T07:30:06;100741.47;;;20.19;100.00
2401;BME280;1211;43.200;27.914;2023-04-15T07:32:33;100738.78;;;20.40;100.00
2401;BME280;1211;43.200;27.914;2023-04-15T07:35:00;100730.09;;;20.67;100.00
2401;BME280;1211;43.200;27.914;2023-04-15T07:37:27;100737.66;;;20.55;100.00
2401;BME280;1211;43.200;27.914;2023-04-15T07:39:54;100732.88;;;20.70;100.00
2401;BME280;1211;43.200;27.914;2023-04-15T07:42:21;100733.78;;;21.17;100.00
2401;BME280;1211;43.200;27.914;2023-04-15T07:44:49;100743.38;;;21.44;100.00
2401;BME280;1211;43.200;27.914;2023-04-15T07:47:17;100737.34;;;21.81;100.00
2401;BME280;1211;43.200;27.914;2023-04-15T07:49:43;100744.00;;;22.30;100.00
2401;BME280;1211;43.200;27.914;2023-04-15T07:52:10;100742.53;;;21.79;96.72
2401;BME280;1211;43.200;27.914;2023-04-15T07:54:37;100742.59;;;22.80;97.27
2401;BME280;1211;43.200;27.914;2023-04-15T07:57:04;100743.63;;;20.58;100.00
2401;BME280;1211;43.200;27.914;2023-04-15T07:59:30;100744.59;;;21.50;100.00
2401;BME280;1211;43.200;27.914;2023-04-15T08:01:59;100731.56;;;22.38;98.83
2401;BME280;1211;43.200;27.914;2023-04-15T08:04:25;100734.97;;;22.77;93.71
2401;BME280;1211;43.200;27.914;2023-04-15T08:06:52;100739.19;;;22.37;91.97
2401;BME280;1211;43.200;27.914;2023-04-15T08:09:19;100740.00;;;22.34;90.73
2401;BME280;1211;43.200;27.914;2023-04-15T08:11:47;100745.56;;;22.41;91.85
2401;BME280;1211;43.200;27.914;2023-04-15T08:14:14;100748.97;;;21.69;93.75
2401;BME280;1211;43.200;27.914;2023-04-15T08:16:41;100752.19;;;21.57;95.04
2401;BME280;1211;43.200;27.914;2023-04-15T08:19:09;100743.00;;;21.28;96.53
2401;BME280;1211;43.200;27.914;2023-04-15T08:21:36;100748.97;;;21.26;97.45
2401;BME280;1211;43.200;27.914;2023-04-15T08:24:02;100742.13;;;20.92;98.48
2401;BME280;1211;43.200;27.914;2023-04-15T08:26:29;100730.41;;;20.47;100.00
2401;BME280;1211;43.200;27.914;2023-04-15T08:28:56;100726.50;;;20.66;100.00
2401;BME280;1211;43.200;27.914;2023-04-15T08:31:25;100717.69;;;20.75;100.00
2401;BME280;1211;43.200;27.914;2023-04-15T08:33:52;100730.91;;;20.78;99.50
2401;BME280;1211;43.200;27.914;2023-04-15T08:36:22;100731.25;;;20.59;99.08
2401;BME280;1211;43.200;27.914;2023-04-15T08:38:49;100725.22;;;20.46;98.58
2401;BME280;1211;43.200;27.914;2023-04-15T08:41:19;100718.50;;;19.82;100.00
2401;BME280;1211;43.200;27.914;2023-04-15T08:43:50;100710.69;;;19.47;100.00
2401;BME280;1211;43.200;27.914;2023-04-15T08:46:17;100730.47;;;19.75;100.00
2401;BME280;1211;43.200;27.914;2023-04-15T08:48:44;100733.66;;;20.64;100.00
2401;BME280;1211;43.200;27.914;2023-04-15T08:51:13;100743.78;;;21.21;97.95
2401;BME280;1211;43.200;27.914;2023-04-15T08:53:42;100722.56;;;21.34;94.95
2401;BME280;1211;43.200;27.914;2023-04-15T08:56:09;100741.38;;;21.27;94.12
2401;BME280;1211;43.200;27.914;2023-04-15T08:58:36;100763.34;;;22.03;89.92
2401;BME280;1211;43.200;27.914;2023-04-15T09:01:03;100763.91;;;22.67;87.24
2401;BME280;1211;43.200;27.914;2023-04-15T09:03:30;100753.88;;;22.73;84.64
2401;BME280;1211;43.200;27.914;2023-04-15T09:05:57;100761.53;;;22.62;84.29
2401;BME280;1211;43.200;27.914;2023-04-15T09:08:24;100746.94;;;22.88;81.54
2401;BME280;1211;43.200;27.914;2023-04-15T09:10:53;100755.63;;;23.12;82.57
2401;BME280;1211;43.200;27.914;2023-04-15T09:13:20;100755.69;;;23.01;82.31
2401;BME280;1211;43.200;27.914;2023-04-15T09:15:47;100758.81;;;22.37;81.71
2401;BME280;1211;43.200;27.914;2023-04-15T09:18:21;100756.72;;;23.25;79.47
2401;BME280;1211;43.200;27.914;2023-04-15T09:20:52;100765.94;;;23.29;78.00
2401;BME280;1211;43.200;27.914;2023-04-15T09:23:19;100764.94;;;22.07;83.04
2401;BME280;1211;43.200;27.914;2023-04-15T09:25:46;100762.59;;;21.53;86.03
2401;BME280;1211;43.200;27.914;2023-04-15T09:28:22;100754.28;;;23.27;81.80
2401;BME280;1211;43.200;27.914;2023-04-15T09:30:50;100743.97;;;24.36;77.85
2401;BME280;1211;43.200;27.914;2023-04-15T09:33:16;100752.19;;;24.84;74.50
2401;BME280;1211;43.200;27.914;2023-04-15T09:35:47;100755.56;;;24.72;70.69
2401;BME280;1211;43.200;27.914;2023-04-15T09:38:21;100755.09;;;24.77;72.00
2401;BME280;1211;43.200;27.914;2023-04-15T09:40:48;100753.66;;;24.96;71.65
2401;BME280;1211;43.200;27.914;2023-04-15T09:43:16;100757.34;;;24.62;70.41
2401;BME280;1211;43.200;27.914;2023-04-15T09:45:46;100759.97;;;24.09;71.06
2401;BME280;1211;43.200;27.914;2023-04-15T09:48:17;100751.00;;;25.12;68.63
2401;BME280;1211;43.200;27.914;2023-04-15T09:50:45;100759.00;;;23.89;71.33
2401;BME280;1211;43.200;27.914;2023-04-15T09:53:14;100754.53;;;25.90;67.17
2401;BME280;1211;43.200;27.914;2023-04-15T09:55:42;100761.22;;;25.76;66.74
2401;BME280;1211;43.200;27.914;2023-04-15T09:58:10;100765.28;;;25.25;68.30
2401;BME280;1211;43.200;27.914;2023-04-15T10:00:44;100762.66;;;24.84;68.62
2401;BME280;1211;43.200;27.914;2023-04-15T10:03:12;100761.56;;;25.31;68.44
2401;BME280;1211;43.200;27.914;2023-04-15T10:05:40;100757.31;;;25.70;65.61
2401;BME280;1211;43.200;27.914;2023-04-15T10:08:07;100758.50;;;25.45;66.19
2401;BME280;1211;43.200;27.914;2023-04-15T10:10:35;100765.69;;;25.50;65.60
2401;BME280;1211;43.200;27.914;2023-04-15T10:13:02;100763.66;;;25.27;65.73
2401;BME280;1211;43.200;27.914;2023-04-15T10:15:28;100759.38;;;25.89;65.18
2401;BME280;1211;43.200;27.914;2023-04-15T10:17:57;100761.88;;;26.66;62.17
2401;BME280;1211;43.200;27.914;2023-04-15T10:20:25;100756.50;;;27.08;60.48
2401;BME280;1211;43.200;27.914;2023-04-15T10:22:54;100760.97;;;25.43;64.29
2401;BME280;1211;43.200;27.914;2023-04-15T10:25:21;100751.38;;;27.02;62.02
2401;BME280;1211;43.200;27.914;2023-04-15T10:27:49;100763.94;;;28.11;58.22
2401;BME280;1211;43.200;27.914;2023-04-15T10:30:17;100760.41;;;26.78;60.99
2401;BME280;1211;43.200;27.914;2023-04-15T10:32:44;100748.97;;;26.06;61.57
2401;BME280;1211;43.200;27.914;2023-04-15T10:35:12;100745.78;;;26.63;60.62
2401;BME280;1211;43.200;27.914;2023-04-15T10:37:39;100749.28;;;27.07;60.90
2401;BME280;1211;43.200;27.914;2023-04-15T10:40:25;100751.13;;;28.36;57.94
2401;BME280;1211;43.200;27.914;2023-04-15T10:42:53;100746.78;;;28.73;55.27
2401;BME280;1211;43.200;27.914;2023-04-15T10:45:20;100758.50;;;29.00;53.56
2401;BME280;1211;43.200;27.914;2023-04-15T10:47:50;100757.03;;;28.83;53.61
2401;BME280;1211;43.200;27.914;2023-04-15T10:50:18;100748.44;;;28.57;53.92
2401;BME280;1211;43.200;27.914;2023-04-15T10:52:45;100741.75;;;28.51;53.36
2401;BME280;1211;43.200;27.914;2023-04-15T10:55:12;100748.16;;;28.26;54.05
2401;BME280;1211;43.200;27.914;2023-04-15T10:57:40;100753.41;;;29.07;52.45
2401;BME280;1211;43.200;27.914;2023-04-15T11:00:09;100747.16;;;29.38;51.35
2401;BME280;1211;43.200;27.914;2023-04-15T11:02:44;100745.47;;;29.75;50.15
2401;BME280;1211;43.200;27.914;2023-04-15T11:05:11;100754.28;;;28.66;50.71
2401;BME280;1211;43.200;27.914;2023-04-15T11:07:41;100760.81;;;28.63;51.56
2401;BME280;1211;43.200;27.914;2023-04-15T11:12:58;100754.41;;;28.21;53.72
2401;BME280;1211;43.200;27.914;2023-04-15T11:15:26;100753.28;;;27.58;54.80
2401;BME280;1211;43.200;27.914;2023-04-15T11:17:53;100741.06;;;27.28;56.34
2401;BME280;1211;43.200;27.914;2023-04-15T11:20:20;100748.22;;;26.81;56.55
2401;BME280;1211;43.200;27.914;2023-04-15T11:22:49;100741.59;;;27.56;55.77
2401;BME280;1211;43.200;27.914;2023-04-15T11:25:25;100746.75;;;26.73;56.64
2401;BME280;1211;43.200;27.914;2023-04-15T11:27:52;100754.28;;;25.34;59.86
2401;BME280;1211;43.200;27.914;2023-04-15T11:30:19;100752.97;;;25.15;61.82
2401;BME280;1211;43.200;27.914;2023-04-15T11:32:47;100754.91;;;25.18;61.75
2401;BME280;1211;43.200;27.914;2023-04-15T11:35:13;100759.69;;;24.98;61.71
2401;BME280;1211;43.200;27.914;2023-04-15T11:37:41;100754.44;;;25.47;60.45
2401;BME280;1211;43.200;27.914;2023-04-15T11:40:10;100757.94;;;25.31;61.11
2401;BME280;1211;43.200;27.914;2023-04-15T11:42:36;100754.28;;;24.80;62.24
2401;BME280;1211;43.200;27.914;2023-04-15T11:45:06;100748.22;;;24.51;63.87
2401;BME280;1211;43.200;27.914;2023-04-15T11:47:33;100759.97;;;24.09;64.27
2401;BME280;1211;43.200;27.914;2023-04-15T11:50:12;100749.03;;;24.14;65.09
2401;BME280;1211;43.200;27.914;2023-04-15T11:52:39;100748.94;;;23.88;65.55
2401;BME280;1211;43.200;27.914;2023-04-15T11:55:06;100748.34;;;24.07;65.49
2401;BME280;1211;43.200;27.914;2023-04-15T11:57:35;100753.13;;;23.72;65.85
2401;BME280;1211;43.200;27.914;2023-04-15T12:00:01;100746.06;;;23.95;65.02
2401;BME280;1211;43.200;27.914;2023-04-15T12:02:29;100746.75;;;24.06;65.57
2401;BME280;1211;43.200;27.914;2023-04-15T12:05:02;100733.63;;;24.30;64.63
2401;BME280;1211;43.200;27.914;2023-04-15T12:07:29;100740.59;;;24.48;63.36
2401;BME280;1211;43.200;27.914;2023-04-15T12:09:56;100738.66;;;24.45;63.54
2401;BME280;1211;43.200;27.914;2023-04-15T12:12:25;100742.94;;;25.37;61.46
2401;BME280;1211;43.200;27.914;2023-04-15T12:14:53;100745.16;;;24.05;63.33
2401;BME280;1211;43.200;27.914;2023-04-15T12:17:22;100750.91;;;23.91;64.33
2401;BME280;1211;43.200;27.914;2023-04-15T12:19:54;100748.78;;;23.64;65.43
2401;BME280;1211;43.200;27.914;2023-04-15T12:22:21;100744.91;;;22.96;67.69
2401;BME280;1211;43.200;27.914;2023-04-15T12:24:52;100736.44;;;22.99;69.05
2401;BME280;1211;43.200;27.914;2023-04-15T12:27:24;100740.53;;;22.91;69.89
2401;BME280;1211;43.200;27.914;2023-04-15T12:29:56;100743.81;;;22.79;71.25
2401;BME280;1211;43.200;27.914;2023-04-15T12:32:33;100734.22;;;22.73;70.78
2401;BME280;1211;43.200;27.914;2023-04-15T12:35:00;100739.91;;;23.18;69.38
2401;BME280;1211;43.200;27.914;2023-04-15T12:37:27;100744.13;;;23.44;68.08
2401;BME280;1211;43.200;27.914;2023-04-15T12:39:53;100742.88;;;23.52;68.39
2401;BME280;1211;43.200;27.914;2023-04-15T12:42:20;100748.41;;;23.11;69.76
2401;BME280;1211;43.200;27.914;2023-04-15T12:44:47;100746.38;;;22.42;70.65
2401;BME280;1211;43.200;27.914;2023-04-15T12:47:13;100748.13;;;22.00;73.24
2401;BME280;1211;43.200;27.914;2023-04-15T12:49:41;100746.13;;;22.04;74.37
2401;BME280;1211;43.200;27.914;2023-04-15T12:52:08;100744.94;;;21.84;75.03
2401;BME280;1211;43.200;27.914;2023-04-15T12:54:35;100739.34;;;21.81;74.45
2401;BME280;1211;43.200;27.914;2023-04-15T12:57:01;100745.72;;;22.02;73.60
2401;BME280;1211;43.200;27.914;2023-04-15T12:59:28;100746.47;;;22.21;73.43